sensor_id;sensor_type;location;lat;lon;timestamp;P1;durP1;ratioP1;P2;durP2;ratioP2
7375;SDS011;3728;42.266;24.944;2023-03-23T00:01:15;9.13;;;8.07;;
7375;SDS011;3728;42.266;24.944;2023-03-23T00:03:45;10.50;;;8.27;;
7375;SDS011;3728;42.266;24.944;2023-03-23T00:06:15;11.07;;;8.97;;
7375;SDS011;3728;42.266;24.944;2023-03-23T00:08:43;10.47;;;8.40;;
7375;SDS011;3728;42.266;24.944;2023-03-23T00:11:17;10.33;;;8.40;;
7375;SDS011;3728;42.266;24.944;2023-03-23T00:13:49;13.87;;;9.63;;
7375;SDS011;3728;42.266;24.944;2023-03-23T00:16:18;14.37;;;9.37;;
7375;SDS011;3728;42.266;24.944;2023-03-23T00:18:56;14.90;;;9.63;;
7375;SDS011;3728;42.266;24.944;2023-03-23T00:21:27;10.60;;;9.13;;
7375;SDS011;3728;42.266;24.944;2023-03-23T00:24:00;11.17;;;9.93;;
7375;SDS011;3728;42.266;24.944;2023-03-23T00:26:38;13.63;;;9.63;;
7375;SDS011;3728;42.266;24.944;2023-03-23T00:29:22;11.97;;;10.00;;
7375;SDS011;3728;42.266;24.944;2023-03-23T00:31:49;11.07;;;9.87;;
7375;SDS011;3728;42.266;24.944;2023-03-23T00:34:20;13.07;;;10.47;;
7375;SDS011;3728;42.266;24.944;2023-03-23T00:36:53;15.57;;;10.20;;
7375;SDS011;3728;42.266;24.944;2023-03-23T00:39:24;15.93;;;11.97;;
7375;SDS011;3728;42.266;24.944;2023-03-23T00:41:53;18.83;;;12.07;;
7375;SDS011;3728;42.266;24.944;2023-03-23T00:44:29;21.43;;;12.67;;
7375;SDS011;3728;42.266;24.944;2023-03-23T00:47:00;17.60;;;12.27;;
7375;SDS011;3728;42.266;24.944;2023-03-23T00:49:29;21.13;;;13.07;;
7375;SDS011;3728;42.266;24.944;2023-03-23T00:52:00;21.77;;;13.67;;
7375;SDS011;3728;42.266;24.944;2023-03-23T00:54:28;21.87;;;14.27;;
7375;SDS011;3728;42.266;24.944;2023-03-23T00:56:54;17.77;;;13.73;;
7375;SDS011;3728;42.266;24.944;2023-03-23T00:59:22;16.63;;;13.20;;
7375;SDS011;3728;42.266;24.944;2023-03-23T01:01:50;17.17;;;12.20;;
7375;SDS011;3728;42.266;24.944;2023-03-23T01:04:16;14.53;;;10.60;;
7375;SDS011;3728;42.266;24.944;2023-03-23T01:06:43;12.40;;;10.23;;
7375;SDS011;3728;42.266;24.944;2023-03-23T01:09:14;12.00;;;10.50;;
7375;SDS011;3728;42.266;24.944;2023-03-23T01:11:42;13.97;;;11.23;;
7375;SDS011;3728;42.266;24.944;2023-03-23T01:14:11;13.53;;;10.13;;
7375;SDS011;3728;42.266;24.944;2023-03-23T01:16:40;13.37;;;10.03;;
7375;SDS011;3728;42.266;24.944;2023-03-23T01:19:07;12.50;;;10.63;;
7375;SDS011;3728;42.266;24.944;2023-03-23T01:21:35;13.60;;;10.43;;
7375;SDS011;3728;42.266;24.944;2023-03-23T01:24:02;13.47;;;11.10;;
7375;SDS011;3728;42.266;24.944;2023-03-23T01:26:28;13.50;;;10.83;;
7375;SDS011;3728;42.266;24.944;2023-03-23T01:28:55;15.90;;;12.00;;
7375;SDS011;3728;42.266;24.944;2023-03-23T01:31:22;12.43;;;10.30;;
7375;SDS011;3728;42.266;24.944;2023-03-23T01:33:52;13.57;;;11.00;;
7375;SDS011;3728;42.266;24.944;2023-03-23T01:36:22;13.83;;;11.57;;
7375;SDS011;3728;42.266;24.944;2023-03-23T01:38:56;15.80;;;11.67;;
7375;SDS011;3728;42.266;24.944;2023-03-23T01:41:24;16.03;;;12.63;;
7375;SDS011;3728;42.266;24.944;2023-03-23T01:43:57;17.20;;;12.30;;
7375;SDS011;3728;42.266;24.944;2023-03-23T01:46:45;14.53;;;12.93;;
7375;SDS011;3728;42.266;24.944;2023-03-23T01:49:13;17.20;;;13.07;;
7375;SDS011;3728;42.266;24.944;2023-03-23T01:51:49;16.27;;;11.27;;
7375;SDS011;3728;42.266;24.944;2023-03-23T01:54:25;15.73;;;12.43;;
7375;SDS011;3728;42.266;24.944;2023-03-23T01:57:11;17.43;;;13.23;;
7375;SDS011;3728;42.266;24.944;2023-03-23T01:59:43;17.83;;;13.63;;
7375;SDS011;3728;42.266;24.944;2023-03-23T02:02:20;16.23;;;13.50;;
7375;SDS011;3728;42.266;24.944;2023-03-23T02:04:50;15.83;;;12.90;;
7375;SDS011;3728;42.266;24.944;2023-03-23T02:07:23;17.73;;;13.80;;
7375;SDS011;3728;42.266;24.944;2023-03-23T02:09:52;17.47;;;13.27;;
7375;SDS011;3728;42.266;24.944;2023-03-23T02:12:18;19.57;;;13.90;;
7375;SDS011;3728;42.266;24.944;2023-03-23T02:14:48;18.20;;;14.87;;
7375;SDS011;3728;42.266;24.944;2023-03-23T02:17:20;19.23;;;15.07;;
7375;SDS011;3728;42.266;24.944;2023-03-23T02:20:24;21.00;;;15.77;;
7375;SDS011;3728;42.266;24.944;2023-03-23T02:34:53;20.23;;;15.40;;
7375;SDS011;3728;42.266;24.944;2023-03-23T02:37:34;19.00;;;14.70;;
7375;SDS011;3728;42.266;24.944;2023-03-23T02:40:07;18.47;;;14.90;;
7375;SDS011;3728;42.266;24.944;2023-03-23T02:42:46;18.57;;;14.53;;
7375;SDS011;3728;42.266;24.944;2023-03-23T02:45:19;18.83;;;15.13;;
7375;SDS011;3728;42.266;24.944;2023-03-23T02:47:48;20.07;;;14.23;;
7375;SDS011;3728;42.266;24.944;2023-03-23T02:50:20;21.40;;;15.80;;
7375;SDS011;3728;42.266;24.944;2023-03-23T02:52:49;21.47;;;15.13;;
7375;SDS011;3728;42.266;24.944;2023-03-23T02:55:18;20.77;;;15.33;;
7375;SDS011;3728;42.266;24.944;2023-03-23T02:57:51;28.07;;;18.33;;
7375;SDS011;3728;42.266;24.944;2023-03-23T03:00:19;27.83;;;19.93;;
7375;SDS011;3728;42.266;24.944;2023-03-23T03:02:47;23.93;;;19.00;;
7375;SDS011;3728;42.266;24.944;2023-03-23T03:11:08;26.13;;;18.43;;
7375;SDS011;3728;42.266;24.944;2023-03-23T03:19:40;38.27;;;26.10;;
7375;SDS011;3728;42.266;24.944;2023-03-23T03:22:11;43.17;;;28.73;;
7375;SDS011;3728;42.266;24.944;2023-03-23T03:24:40;52.57;;;35.37;;
7375;SDS011;3728;42.266;24.944;2023-03-23T03:27:11;45.33;;;31.03;;
7375;SDS011;3728;42.266;24.944;2023-03-23T03:29:46;48.43;;;29.70;;
7375;SDS011;3728;42.266;24.944;2023-03-23T03:32:18;31.80;;;22.53;;
7375;SDS011;3728;42.266;24.944;2023-03-23T03:34:50;28.07;;;19.60;;
7375;SDS011;3728;42.266;24.944;2023-03-23T03:37:18;26.67;;;16.63;;
7375;SDS011;3728;42.266;24.944;2023-03-23T03:39:47;19.47;;;15.37;;
7375;SDS011;3728;42.266;24.944;2023-03-23T03:42:13;21.83;;;14.80;;
7375;SDS011;3728;42.266;24.944;2023-03-23T03:44:41;20.23;;;15.77;;
7375;SDS011;3728;42.266;24.944;2023-03-23T03:47:07;21.63;;;14.03;;
7375;SDS011;3728;42.266;24.944;2023-03-23T03:49:34;21.03;;;14.73;;
7375;SDS011;3728;42.266;24.944;2023-03-23T03:52:01;21.27;;;15.57;;
7375;SDS011;3728;42.266;24.944;2023-03-23T03:54:41;24.67;;;15.97;;
7375;SDS011;3728;42.266;24.944;2023-03-23T03:57:08;22.23;;;16.37;;
7375;SDS011;3728;42.266;24.944;2023-03-23T03:59:52;24.10;;;17.73;;
7375;SDS011;3728;42.266;24.944;2023-03-23T04:02:21;30.80;;;22.37;;
7375;SDS011;3728;42.266;24.944;2023-03-23T04:04:51;31.10;;;21.93;;
7375;SDS011;3728;42.266;24.944;2023-03-23T04:07:18;32.27;;;21.97;;
7375;SDS011;3728;42.266;24.944;2023-03-23T04:09:48;30.60;;;22.40;;
7375;SDS011;3728;42.266;24.944;2023-03-23T04:12:18;30.40;;;20.53;;
7375;SDS011;3728;42.266;24.944;2023-03-23T04:14:57;30.80;;;19.40;;
7375;SDS011;3728;42.266;24.944;2023-03-23T04:17:29;26.40;;;18.97;;
7375;SDS011;3728;42.266;24.944;2023-03-23T04:19:56;29.93;;;18.93;;
7375;SDS011;3728;42.266;24.944;2023-03-23T04:22:24;26.87;;;18.33;;
7375;SDS011;3728;42.266;24.944;2023-03-23T04:25:00;25.67;;;19.77;;
7375;SDS011;3728;42.266;24.944;2023-03-23T04:27:33;25.97;;;18.67;;
7375;SDS011;3728;42.266;24.944;2023-03-23T04:30:03;25.40;;;17.60;;
7375;SDS011;3728;42.266;24.944;2023-03-23T04:32:45;25.80;;;18.17;;
7375;SDS011;3728;42.266;24.944;2023-03-23T04:35:19;23.03;;;17.73;;
7375;SDS011;3728;42.266;24.944;2023-03-23T04:38:04;28.20;;;18.77;;
7375;SDS011;3728;42.266;24.944;2023-03-23T04:40:31;25.37;;;18.67;;
7375;SDS011;3728;42.266;24.944;2023-03-23T04:43:10;23.87;;;17.23;;
7375;SDS011;3728;42.266;24.944;2023-03-23T04:45:56;29.93;;;17.43;;
7375;SDS011;3728;42.266;24.944;2023-03-23T04:48:29;28.97;;;18.67;;
7375;SDS011;3728;42.266;24.944;2023-03-23T04:51:08;31.00;;;18.40;;
7375;SDS011;3728;42.266;24.944;2023-03-23T04:53:35;25.33;;;19.13;;
7375;SDS011;3728;42.266;24.944;2023-03-23T04:56:02;26.00;;;19.40;;
7375;SDS011;3728;42.266;24.944;2023-03-23T04:58:35;33.97;;;21.53;;
7375;SDS011;3728;42.266;24.944;2023-03-23T05:01:20;33.10;;;19.93;;
7375;SDS011;3728;42.266;24.944;2023-03-23T05:04:01;26.30;;;18.27;;
7375;SDS011;3728;42.266;24.944;2023-03-23T05:06:28;27.10;;;16.33;;
7375;SDS011;3728;42.266;24.944;2023-03-23T05:09:03;26.27;;;19.33;;
7375;SDS011;3728;42.266;24.944;2023-03-23T05:11:30;39.73;;;25.57;;
7375;SDS011;3728;42.266;24.944;2023-03-23T05:13:57;38.73;;;26.33;;
7375;SDS011;3728;42.266;24.944;2023-03-23T05:16:23;41.37;;;28.27;;
7375;SDS011;3728;42.266;24.944;2023-03-23T05:18:50;42.93;;;28.13;;
7375;SDS011;3728;42.266;24.944;2023-03-23T05:21:19;38.33;;;27.23;;
7375;SDS011;3728;42.266;24.944;2023-03-23T05:23:50;50.57;;;30.23;;
7375;SDS011;3728;42.266;24.944;2023-03-23T05:26:22;38.27;;;24.57;;
7375;SDS011;3728;42.266;24.944;2023-03-23T05:28:54;35.10;;;25.23;;
7375;SDS011;3728;42.266;24.944;2023-03-23T05:31:36;38.90;;;27.70;;
7375;SDS011;3728;42.266;24.944;2023-03-23T05:34:02;38.10;;;28.07;;
7375;SDS011;3728;42.266;24.944;2023-03-23T05:36:53;42.40;;;29.20;;
7375;SDS011;3728;42.266;24.944;2023-03-23T05:39:27;34.67;;;24.57;;
7375;SDS011;3728;42.266;24.944;2023-03-23T05:42:13;40.53;;;22.70;;
7375;SDS011;3728;42.266;24.944;2023-03-23T05:44:49;33.00;;;20.83;;
7375;SDS011;3728;42.266;24.944;2023-03-23T05:47:16;23.57;;;17.77;;
7375;SDS011;3728;42.266;24.944;2023-03-23T05:49:50;27.90;;;19.20;;
7375;SDS011;3728;42.266;24.944;2023-03-23T05:52:18;25.07;;;17.40;;
7375;SDS011;3728;42.266;24.944;2023-03-23T05:54:46;25.03;;;17.20;;
7375;SDS011;3728;42.266;24.944;2023-03-23T05:57:15;25.63;;;16.13;;
7375;SDS011;3728;42.266;24.944;2023-03-23T05:59:49;25.80;;;15.67;;
7375;SDS011;3728;42.266;24.944;2023-03-23T06:02:20;24.27;;;14.97;;
7375;SDS011;3728;42.266;24.944;2023-03-23T06:04:50;27.47;;;18.07;;
7375;SDS011;3728;42.266;24.944;2023-03-23T06:07:27;33.13;;;22.10;;
7375;SDS011;3728;42.266;24.944;2023-03-23T06:10:00;51.03;;;37.93;;
7375;SDS011;3728;42.266;24.944;2023-03-23T06:12:38;53.63;;;40.07;;
7375;SDS011;3728;42.266;24.944;2023-03-23T06:15:09;59.70;;;45.20;;
7375;SDS011;3728;42.266;24.944;2023-03-23T06:18:08;63.87;;;43.90;;
7375;SDS011;3728;42.266;24.944;2023-03-23T06:20:45;39.13;;;31.30;;
7375;SDS011;3728;42.266;24.944;2023-03-23T06:23:36;43.37;;;32.67;;
7375;SDS011;3728;42.266;24.944;2023-03-23T06:26:04;54.83;;;34.53;;
7375;SDS011;3728;42.266;24.944;2023-03-23T06:28:33;107.27;;;58.57;;
7375;SDS011;3728;42.266;24.944;2023-03-23T06:31:02;111.00;;;64.50;;
7375;SDS011;3728;42.266;24.944;2023-03-23T06:33:33;45.50;;;33.30;;
7375;SDS011;3728;42.266;24.944;2023-03-23T06:36:27;29.67;;;21.87;;
7375;SDS011;3728;42.266;24.944;2023-03-23T06:39:10;33.40;;;22.60;;
7375;SDS011;3728;42.266;24.944;2023-03-23T06:41:50;30.60;;;19.40;;
7375;SDS011;3728;42.266;24.944;2023-03-23T06:44:17;25.70;;;17.57;;
7375;SDS011;3728;42.266;24.944;2023-03-23T06:46:44;24.77;;;17.93;;
7375;SDS011;3728;42.266;24.944;2023-03-23T06:49:21;23.70;;;17.70;;
7375;SDS011;3728;42.266;24.944;2023-03-23T06:51:54;24.40;;;17.33;;
7375;SDS011;3728;42.266;24.944;2023-03-23T06:54:22;26.10;;;17.57;;
7375;SDS011;3728;42.266;24.944;2023-03-23T06:56:50;24.40;;;18.47;;
7375;SDS011;3728;42.266;24.944;2023-03-23T06:59:17;23.27;;;17.57;;
7375;SDS011;3728;42.266;24.944;2023-03-23T07:01:43;25.67;;;17.57;;
7375;SDS011;3728;42.266;24.944;2023-03-23T07:04:09;18.73;;;14.70;;
7375;SDS011;3728;42.266;24.944;2023-03-23T07:07:03;17.47;;;11.60;;
7375;SDS011;3728;42.266;24.944;2023-03-23T07:09:51;24.27;;;17.20;;
7375;SDS011;3728;42.266;24.944;2023-03-23T07:12:21;25.30;;;16.27;;
7375;SDS011;3728;42.266;24.944;2023-03-23T07:14:50;25.07;;;17.30;;
7375;SDS011;3728;42.266;24.944;2023-03-23T07:17:20;20.30;;;15.53;;
7375;SDS011;3728;42.266;24.944;2023-03-23T07:20:00;22.53;;;15.53;;
7375;SDS011;3728;42.266;24.944;2023-03-23T07:22:28;21.57;;;15.10;;
7375;SDS011;3728;42.266;24.944;2023-03-23T07:25:04;20.97;;;15.17;;
7375;SDS011;3728;42.266;24.944;2023-03-23T07:27:41;21.63;;;16.37;;
7375;SDS011;3728;42.266;24.944;2023-03-23T07:30:11;21.93;;;16.07;;
7375;SDS011;3728;42.266;24.944;2023-03-23T07:32:39;21.60;;;16.10;;
7375;SDS011;3728;42.266;24.944;2023-03-23T07:35:07;21.80;;;16.77;;
7375;SDS011;3728;42.266;24.944;2023-03-23T07:38:07;21.17;;;16.20;;
7375;SDS011;3728;42.266;24.944;2023-03-23T07:40:35;21.03;;;15.90;;
7375;SDS011;3728;42.266;24.944;2023-03-23T07:43:07;20.77;;;16.27;;
7375;SDS011;3728;42.266;24.944;2023-03-23T07:45:54;23.17;;;16.20;;
7375;SDS011;3728;42.266;24.944;2023-03-23T07:48:24;18.57;;;15.67;;
7375;SDS011;3728;42.266;24.944;2023-03-23T07:50:51;21.57;;;15.63;;
7375;SDS011;3728;42.266;24.944;2023-03-23T07:53:18;22.57;;;16.43;;
7375;SDS011;3728;42.266;24.944;2023-03-23T07:55:54;21.53;;;16.77;;
7375;SDS011;3728;42.266;24.944;2023-03-23T07:58:46;23.77;;;16.77;;
7375;SDS011;3728;42.266;24.944;2023-03-23T08:01:13;19.87;;;15.13;;
7375;SDS011;3728;42.266;24.944;2023-03-23T08:03:43;20.93;;;16.33;;
7375;SDS011;3728;42.266;24.944;2023-03-23T08:06:35;18.47;;;15.77;;
7375;SDS011;3728;42.266;24.944;2023-03-23T08:09:34;18.43;;;15.17;;
7375;SDS011;3728;42.266;24.944;2023-03-23T08:12:23;16.63;;;14.83;;
7375;SDS011;3728;42.266;24.944;2023-03-23T08:15:16;19.03;;;14.07;;
7375;SDS011;3728;42.266;24.944;2023-03-23T08:17:50;19.10;;;14.97;;
7375;SDS011;3728;42.266;24.944;2023-03-23T08:20:37;19.50;;;15.00;;
7375;SDS011;3728;42.266;24.944;2023-03-23T08:23:26;16.93;;;13.93;;
7375;SDS011;3728;42.266;24.944;2023-03-23T08:26:11;17.57;;;13.93;;
7375;SDS011;3728;42.266;24.944;2023-03-23T08:28:58;16.23;;;13.90;;
7375;SDS011;3728;42.266;24.944;2023-03-23T08:32:03;14.77;;;13.00;;
7375;SDS011;3728;42.266;24.944;2023-03-23T08:34:51;21.23;;;14.03;;
7375;SDS011;3728;42.266;24.944;2023-03-23T08:37:36;14.87;;;13.30;;
7375;SDS011;3728;42.266;24.944;2023-03-23T08:40:25;18.40;;;13.77;;
7375;SDS011;3728;42.266;24.944;2023-03-23T08:43:11;18.33;;;14.00;;
7375;SDS011;3728;42.266;24.944;2023-03-23T08:45:56;18.27;;;14.03;;
7375;SDS011;3728;42.266;24.944;2023-03-23T08:48:39;18.33;;;13.20;;
7375;SDS011;3728;42.266;24.944;2023-03-23T08:51:33;15.87;;;13.97;;
7375;SDS011;3728;42.266;24.944;2023-03-23T08:54:27;15.70;;;13.40;;
7375;SDS011;3728;42.266;24.944;2023-03-23T08:57:19;16.80;;;14.20;;
7375;SDS011;3728;42.266;24.944;2023-03-23T09:00:24;12.83;;;11.47;;
7375;SDS011;3728;42.266;24.944;2023-03-23T09:03:12;19.87;;;11.13;;
7375;SDS011;3728;42.266;24.944;2023-03-23T09:06:01;12.97;;;10.83;;
7375;SDS011;3728;42.266;24.944;2023-03-23T09:08:35;12.30;;;10.87;;
7375;SDS011;3728;42.266;24.944;2023-03-23T09:11:03;15.00;;;11.60;;
7375;SDS011;3728;42.266;24.944;2023-03-23T09:13:36;15.23;;;10.50;;
7375;SDS011;3728;42.266;24.944;2023-03-23T09:16:05;11.07;;;9.20;;
7375;SDS011;3728;42.266;24.944;2023-03-23T09:18:33;12.90;;;10.53;;
7375;SDS011;3728;42.266;24.944;2023-03-23T09:21:01;12.77;;;11.23;;
7375;SDS011;3728;42.266;24.944;2023-03-23T09:23:29;11.67;;;9.43;;
7375;SDS011;3728;42.266;24.944;2023-03-23T09:25:57;12.60;;;8.83;;
7375;SDS011;3728;42.266;24.944;2023-03-23T09:28:26;9.53;;;7.73;;
7375;SDS011;3728;42.266;24.944;2023-03-23T09:30:54;8.63;;;7.73;;
7375;SDS011;3728;42.266;24.944;2023-03-23T09:33:24;7.67;;;6.83;;
7375;SDS011;3728;42.266;24.944;2023-03-23T09:35:51;6.20;;;5.60;;
7375;SDS011;3728;42.266;24.944;2023-03-23T09:38:21;5.50;;;5.00;;
7375;SDS011;3728;42.266;24.944;2023-03-23T09:47:12;7.77;;;5.27;;
7375;SDS011;3728;42.266;24.944;2023-03-23T09:55:18;4.70;;;4.30;;
7375;SDS011;3728;42.266;24.944;2023-03-23T09:57:52;4.90;;;4.30;;
7375;SDS011;3728;42.266;24.944;2023-03-23T10:01:17;3.83;;;3.43;;
7375;SDS011;3728;42.266;24.944;2023-03-23T10:04:10;5.00;;;4.27;;
7375;SDS011;3728;42.266;24.944;2023-03-23T10:06:57;3.80;;;3.50;;
7375;SDS011;3728;42.266;24.944;2023-03-23T10:09:37;5.53;;;4.50;;
7375;SDS011;3728;42.266;24.944;2023-03-23T10:14:57;5.23;;;4.77;;
7375;SDS011;3728;42.266;24.944;2023-03-23T10:17:45;5.50;;;5.00;;
7375;SDS011;3728;42.266;24.944;2023-03-23T10:23:02;6.17;;;5.57;;
7375;SDS011;3728;42.266;24.944;2023-03-23T10:25:48;5.70;;;5.20;;
7375;SDS011;3728;42.266;24.944;2023-03-23T10:28:38;5.87;;;4.40;;
7375;SDS011;3728;42.266;24.944;2023-03-23T10:31:14;4.73;;;3.80;;
7375;SDS011;3728;42.266;24.944;2023-03-23T10:33:59;5.10;;;4.60;;
7375;SDS011;3728;42.266;24.944;2023-03-23T10:36:36;8.97;;;5.20;;
7375;SDS011;3728;42.266;24.944;2023-03-23T10:39:21;7.27;;;5.37;;
7375;SDS011;3728;42.266;24.944;2023-03-23T10:41:52;5.60;;;5.00;;
7375;SDS011;3728;42.266;24.944;2023-03-23T10:44:19;8.20;;;5.67;;
7375;SDS011;3728;42.266;24.944;2023-03-23T10:49:31;6.83;;;5.70;;
7375;SDS011;3728;42.266;24.944;2023-03-23T10:55:22;5.53;;;5.03;;
7375;SDS011;3728;42.266;24.944;2023-03-23T10:58:01;6.00;;;5.40;;
7375;SDS011;3728;42.266;24.944;2023-03-23T11:00:31;5.20;;;4.70;;
7375;SDS011;3728;42.266;24.944;2023-03-23T11:03:03;9.57;;;4.93;;
7375;SDS011;3728;42.266;24.944;2023-03-23T11:05:35;5.97;;;5.40;;
7375;SDS011;3728;42.266;24.944;2023-03-23T11:08:16;5.70;;;4.57;;
7375;SDS011;3728;42.266;24.944;2023-03-23T11:11:08;6.50;;;5.30;;
7375;SDS011;3728;42.266;24.944;2023-03-23T11:13:44;11.63;;;5.63;;
7375;SDS011;3728;42.266;24.944;2023-03-23T11:16:26;11.67;;;5.20;;
7375;SDS011;3728;42.266;24.944;2023-03-23T11:18:58;11.50;;;4.73;;
7375;SDS011;3728;42.266;24.944;2023-03-23T11:21:26;5.27;;;4.47;;
7375;SDS011;3728;42.266;24.944;2023-03-23T11:23:57;4.50;;;4.00;;
7375;SDS011;3728;42.266;24.944;2023-03-23T11:26:28;4.60;;;3.60;;
7375;SDS011;3728;42.266;24.944;2023-03-23T11:32:12;6.80;;;3.70;;
7375;SDS011;3728;42.266;24.944;2023-03-23T11:37:43;3.47;;;3.17;;
7375;SDS011;3728;42.266;24.944;2023-03-23T11:40:22;5.60;;;2.70;;
7375;SDS011;3728;42.266;24.944;2023-03-23T11:43:00;3.57;;;2.73;;
7375;SDS011;3728;42.266;24.944;2023-03-23T11:45:39;2.60;;;2.40;;
7375;SDS011;3728;42.266;24.944;2023-03-23T11:51:38;2.90;;;2.70;;
7375;SDS011;3728;42.266;24.944;2023-03-23T11:54:19;3.27;;;2.63;;
7375;SDS011;3728;42.266;24.944;2023-03-23T11:57:10;2.80;;;2.30;;
7375;SDS011;3728;42.266;24.944;2023-03-23T11:59:41;2.67;;;2.47;;
7375;SDS011;3728;42.266;24.944;2023-03-23T12:05:21;2.17;;;1.97;;
7375;SDS011;3728;42.266;24.944;2023-03-23T12:10:42;3.03;;;2.80;;
7375;SDS011;3728;42.266;24.944;2023-03-23T12:16:46;3.57;;;3.00;;
7375;SDS011;3728;42.266;24.944;2023-03-23T12:22:45;10.77;;;4.07;;
7375;SDS011;3728;42.266;24.944;2023-03-23T12:52:23;4.33;;;2.60;;
7375;SDS011;3728;42.266;24.944;2023-03-23T12:57:57;3.00;;;2.80;;
7375;SDS011;3728;42.266;24.944;2023-03-23T13:00:56;2.90;;;2.70;;
7375;SDS011;3728;42.266;24.944;2023-03-23T13:03:30;3.30;;;3.00;;
7375;SDS011;3728;42.266;24.944;2023-03-23T13:06:07;3.03;;;2.83;;
7375;SDS011;3728;42.266;24.944;2023-03-23T13:09:05;2.70;;;2.50;;
7375;SDS011;3728;42.266;24.944;2023-03-23T13:11:53;3.00;;;2.80;;
7375;SDS011;3728;42.266;24.944;2023-03-23T13:23:25;3.10;;;2.80;;
7375;SDS011;3728;42.266;24.944;2023-03-23T13:26:13;5.87;;;3.53;;
7375;SDS011;3728;42.266;24.944;2023-03-23T13:31:30;3.30;;;3.00;;
7375;SDS011;3728;42.266;24.944;2023-03-23T13:39:56;5.53;;;4.83;;
7375;SDS011;3728;42.266;24.944;2023-03-23T13:50:48;5.90;;;4.30;;
7375;SDS011;3728;42.266;24.944;2023-03-23T13:53:29;5.23;;;4.37;;
7375;SDS011;3728;42.266;24.944;2023-03-23T13:56:16;9.67;;;4.87;;
7375;SDS011;3728;42.266;24.944;2023-03-23T13:59:04;4.50;;;4.10;;
7375;SDS011;3728;42.266;24.944;2023-03-23T14:01:40;5.27;;;4.40;;
7375;SDS011;3728;42.266;24.944;2023-03-23T14:04:17;7.57;;;4.43;;
7375;SDS011;3728;42.266;24.944;2023-03-23T14:06:46;6.27;;;4.10;;
7375;SDS011;3728;42.266;24.944;2023-03-23T14:09:25;6.43;;;4.50;;
7375;SDS011;3728;42.266;24.944;2023-03-23T14:12:03;5.03;;;4.53;;
7375;SDS011;3728;42.266;24.944;2023-03-23T14:14:41;6.07;;;4.70;;
7375;SDS011;3728;42.266;24.944;2023-03-23T14:17:26;4.83;;;4.33;;
7375;SDS011;3728;42.266;24.944;2023-03-23T14:19:57;7.60;;;4.63;;
7375;SDS011;3728;42.266;24.944;2023-03-23T14:22:42;5.60;;;4.60;;
7375;SDS011;3728;42.266;24.944;2023-03-23T14:25:16;6.37;;;4.53;;
7375;SDS011;3728;42.266;24.944;2023-03-23T14:27:50;6.70;;;5.10;;
7375;SDS011;3728;42.266;24.944;2023-03-23T14:30:19;7.80;;;5.47;;
7375;SDS011;3728;42.266;24.944;2023-03-23T14:32:53;5.47;;;5.00;;
7375;SDS011;3728;42.266;24.944;2023-03-23T14:35:31;6.57;;;5.07;;
7375;SDS011;3728;42.266;24.944;2023-03-23T14:38:01;6.27;;;5.37;;
7375;SDS011;3728;42.266;24.944;2023-03-23T14:40:29;5.83;;;5.33;;
7375;SDS011;3728;42.266;24.944;2023-03-23T14:42:57;6.17;;;5.10;;
7375;SDS011;3728;42.266;24.944;2023-03-23T14:45:25;9.47;;;8.13;;
7375;SDS011;3728;42.266;24.944;2023-03-23T14:48:01;6.13;;;5.40;;
7375;SDS011;3728;42.266;24.944;2023-03-23T14:50:37;16.87;;;7.87;;
7375;SDS011;3728;42.266;24.944;2023-03-23T14:56:03;5.67;;;4.67;;
7375;SDS011;3728;42.266;24.944;2023-03-23T14:58:38;5.77;;;4.83;;
7375;SDS011;3728;42.266;24.944;2023-03-23T15:01:10;8.03;;;4.87;;
7375;SDS011;3728;42.266;24.944;2023-03-23T15:03:58;5.17;;;4.67;;
7375;SDS011;3728;42.266;24.944;2023-03-23T15:06:36;6.70;;;5.10;;
7375;SDS011;3728;42.266;24.944;2023-03-23T15:09:15;6.13;;;4.70;;
7375;SDS011;3728;42.266;24.944;2023-03-23T15:11:49;5.87;;;4.63;;
7375;SDS011;3728;42.266;24.944;2023-03-23T15:14:30;6.93;;;4.90;;
7375;SDS011;3728;42.266;24.944;2023-03-23T15:17:23;6.10;;;4.40;;
7375;SDS011;3728;42.266;24.944;2023-03-23T15:20:09;5.73;;;4.47;;
7375;SDS011;3728;42.266;24.944;2023-03-23T15:22:46;5.77;;;4.60;;
7375;SDS011;3728;42.266;24.944;2023-03-23T15:32:52;6.27;;;4.43;;
7375;SDS011;3728;42.266;24.944;2023-03-23T15:35:35;8.93;;;5.23;;
7375;SDS011;3728;42.266;24.944;2023-03-23T15:38:06;6.40;;;5.80;;
7375;SDS011;3728;42.266;24.944;2023-03-23T15:41:01;4.90;;;4.40;;
7375;SDS011;3728;42.266;24.944;2023-03-23T15:43:35;3.77;;;3.43;;
7375;SDS011;3728;42.266;24.944;2023-03-23T15:48:47;4.93;;;4.17;;
7375;SDS011;3728;42.266;24.944;2023-03-23T15:51:16;6.23;;;4.30;;
7375;SDS011;3728;42.266;24.944;2023-03-23T15:53:45;4.90;;;4.17;;
7375;SDS011;3728;42.266;24.944;2023-03-23T15:56:12;6.20;;;4.60;;
7375;SDS011;3728;42.266;24.944;2023-03-23T15:58:59;5.30;;;4.63;;
7375;SDS011;3728;42.266;24.944;2023-03-23T16:01:27;6.63;;;5.20;;
7375;SDS011;3728;42.266;24.944;2023-03-23T16:06:30;5.77;;;5.17;;
7375;SDS011;3728;42.266;24.944;2023-03-23T16:09:19;7.07;;;5.30;;
7375;SDS011;3728;42.266;24.944;2023-03-23T16:11:47;6.80;;;5.43;;
7375;SDS011;3728;42.266;24.944;2023-03-23T16:14:15;8.67;;;5.20;;
7375;SDS011;3728;42.266;24.944;2023-03-23T16:16:46;6.37;;;5.57;;
7375;SDS011;3728;42.266;24.944;2023-03-23T16:19:16;6.67;;;5.97;;
7375;SDS011;3728;42.266;24.944;2023-03-23T16:21:46;8.90;;;6.60;;
7375;SDS011;3728;42.266;24.944;2023-03-23T16:24:13;10.97;;;6.53;;
7375;SDS011;3728;42.266;24.944;2023-03-23T16:26:41;11.40;;;7.00;;
7375;SDS011;3728;42.266;24.944;2023-03-23T16:29:09;9.13;;;7.03;;
7375;SDS011;3728;42.266;24.944;2023-03-23T16:31:59;10.83;;;7.13;;
7375;SDS011;3728;42.266;24.944;2023-03-23T16:34:27;10.97;;;7.57;;
7375;SDS011;3728;42.266;24.944;2023-03-23T16:36:58;11.87;;;7.73;;
7375;SDS011;3728;42.266;24.944;2023-03-23T16:39:27;10.60;;;8.57;;
7375;SDS011;3728;42.266;24.944;2023-03-23T16:41:55;11.27;;;8.83;;
7375;SDS011;3728;42.266;24.944;2023-03-23T16:44:23;13.67;;;7.87;;
7375;SDS011;3728;42.266;24.944;2023-03-23T16:46:50;14.77;;;8.17;;
7375;SDS011;3728;42.266;24.944;2023-03-23T16:49:18;8.90;;;7.77;;
7375;SDS011;3728;42.266;24.944;2023-03-23T16:51:46;10.17;;;7.80;;
7375;SDS011;3728;42.266;24.944;2023-03-23T16:54:14;10.10;;;7.80;;
7375;SDS011;3728;42.266;24.944;2023-03-23T16:56:42;10.00;;;8.07;;
7375;SDS011;3728;42.266;24.944;2023-03-23T16:59:12;9.43;;;8.13;;
7375;SDS011;3728;42.266;24.944;2023-03-23T17:01:40;10.37;;;8.70;;
7375;SDS011;3728;42.266;24.944;2023-03-23T17:04:09;11.80;;;9.87;;
7375;SDS011;3728;42.266;24.944;2023-03-23T17:06:37;9.80;;;8.80;;
7375;SDS011;3728;42.266;24.944;2023-03-23T17:09:04;13.27;;;9.00;;
7375;SDS011;3728;42.266;24.944;2023-03-23T17:11:34;9.50;;;8.33;;
7375;SDS011;3728;42.266;24.944;2023-03-23T17:14:01;9.57;;;8.43;;
7375;SDS011;3728;42.266;24.944;2023-03-23T17:16:29;11.40;;;9.10;;
7375;SDS011;3728;42.266;24.944;2023-03-23T17:19:19;10.20;;;8.93;;
7375;SDS011;3728;42.266;24.944;2023-03-23T17:21:49;8.60;;;7.80;;
7375;SDS011;3728;42.266;24.944;2023-03-23T17:24:17;8.23;;;7.30;;
7375;SDS011;3728;42.266;24.944;2023-03-23T17:26:45;8.53;;;7.73;;
7375;SDS011;3728;42.266;24.944;2023-03-23T17:29:12;7.27;;;6.67;;
7375;SDS011;3728;42.266;24.944;2023-03-23T17:31:40;7.40;;;6.50;;
7375;SDS011;3728;42.266;24.944;2023-03-23T17:34:08;7.37;;;6.67;;
7375;SDS011;3728;42.266;24.944;2023-03-23T17:36:56;12.57;;;7.83;;
7375;SDS011;3728;42.266;24.944;2023-03-23T17:39:23;11.00;;;7.30;;
7375;SDS011;3728;42.266;24.944;2023-03-23T17:41:53;9.07;;;7.20;;
7375;SDS011;3728;42.266;24.944;2023-03-23T17:44:21;10.43;;;9.33;;
7375;SDS011;3728;42.266;24.944;2023-03-23T17:46:48;10.80;;;9.77;;
7375;SDS011;3728;42.266;24.944;2023-03-23T17:49:16;16.87;;;15.20;;
7375;SDS011;3728;42.266;24.944;2023-03-23T17:51:46;32.13;;;28.73;;